Time;durP1;ratioP1;P1;durP2;ratioP2;P2;SDS_P1;SDS_P2;PMS_P1;PMS_P2;Temp;Humidity;BMP_temperature;BMP_pressure;BME280_temperature;BME280_humidity;BME280_pressure;Samples;Min_cycle;Max_cycle;Signal;HPM_P1;HPM_P2
2022/09/08 00:00:20;;;;;;;20.10;12.90;;;24.60;80.30;;;;;;5012611;28;20045;-62
2022/09/08 00:02:47;;;;;;;14.97;12.73;;;24.60;80.10;;;;;;5013405;28;20033;-62
2022/09/08 00:05:17;;;;;;;14.07;12.65;;;24.60;80.00;;;;;;5013441;28;20030;-62
2022/09/08 00:07:43;;;;;;;19.42;13.25;;;24.70;80.00;;;;;;5013673;28;20026;-62
2022/09/08 00:10:11;;;;;;;16.80;13.10;;;24.60;80.10;;;;;;5013774;28;20478;-60
2022/09/08 00:12:41;;;;;;;16.80;13.27;;;24.60;80.00;;;;;;5012950;28;20026;-62
2022/09/08 00:15:08;;;;;;;16.35;11.98;;;24.60;80.30;;;;;;5013767;28;20029;-62
2022/09/08 00:17:34;;;;;;;14.50;12.23;;;24.60;80.00;;;;;;5013209;28;20026;-62
2022/09/08 00:19:59;;;;;;;13.43;12.03;;;24.60;80.00;;;;;;5013186;28;20025;-64
2022/09/08 00:22:25;;;;;;;14.47;13.07;;;24.50;80.20;;;;;;5013410;28;20518;-62
2022/09/08 00:24:51;;;;;;;14.03;12.27;;;24.50;80.10;;;;;;5013360;28;20372;-61
2022/09/08 00:27:16;;;;;;;14.73;13.23;;;24.60;80.00;;;;;;5013184;28;20537;-62
2022/09/08 00:29:42;;;;;;;16.27;13.33;;;24.50;80.20;;;;;;5013743;28;20113;-64
2022/09/08 00:32:08;;;;;;;17.83;13.47;;;24.50;80.20;;;;;;5013073;28;20026;-62
2022/09/08 00:34:34;;;;;;;15.53;12.80;;;24.50;80.20;;;;;;5012733;28;20032;-60
2022/09/08 00:37:00;;;;;;;15.63;13.85;;;24.50;80.30;;;;;;5013015;28;20022;-62
2022/09/08 00:39:26;;;;;;;16.90;13.40;;;24.50;80.50;;;;;;5011945;28;20032;-62
2022/09/08 00:41:52;;;;;;;15.97;13.80;;;24.50;80.20;;;;;;5013109;28;20363;-64
2022/09/08 00:44:39;;;;;;;15.00;13.37;;;24.50;80.50;;;;;;5006939;28;20022;-63
2022/09/08 00:47:22;;;;;;;15.18;13.45;;;24.50;80.80;;;;;;5013163;28;20112;-64
2022/09/08 00:49:53;;;;;;;25.50;12.85;;;24.40;81.10;;;;;;5011457;28;20121;-61
2022/09/08 00:52:20;;;;;;;15.77;13.60;;;24.40;81.10;;;;;;5004166;28;20505;-62
2022/09/08 00:54:46;;;;;;;;;;;24.40;81.20;;;;;;5013084;28;20068;-61
2022/09/08 00:57:13;;;;;;;18.70;14.27;;;24.30;81.60;;;;;;5011116;28;19948;-62
2022/09/08 00:59:39;;;;;;;17.67;14.70;;;24.30;81.50;;;;;;5013093;28;20075;-61
2022/09/08 01:02:25;;;;;;;17.90;15.67;;;24.30;81.40;;;;;;5012148;28;20421;-62
2022/09/08 01:04:57;;;;;;;17.05;15.35;;;24.30;81.60;;;;;;5011107;28;20474;-61
2022/09/08 01:13:29;;;;;;;16.75;14.82;;;24.30;82.00;;;;;;5010994;28;20548;-60
2022/09/08 01:15:55;;;;;;;21.30;17.90;;;24.30;82.10;;;;;;5012324;28;20034;-62
2022/09/08 01:18:21;;;;;;;19.95;17.33;;;24.30;82.10;;;;;;5011879;28;20529;-62
2022/09/08 01:20:54;;;;;;;18.95;16.25;;;24.20;82.30;;;;;;5012341;28;20061;-63
2022/09/08 01:23:44;;;;;;;21.20;15.40;;;24.20;82.30;;;;;;5012343;28;20021;-62
2022/09/08 01:26:20;;;;;;;18.98;15.13;;;24.30;82.50;;;;;;5011460;28;20033;-63
2022/09/08 01:29:05;;;;;;;18.35;16.55;;;24.30;82.20;;;;;;5012047;28;20431;-62
2022/09/08 01:31:33;;;;;;;17.98;15.45;;;24.30;82.30;;;;;;4993705;28;20030;-62
2022/09/08 01:34:00;;;;;;;18.48;15.48;;;24.30;82.20;;;;;;5011725;28;20022;-64
2022/09/08 01:36:26;;;;;;;27.10;17.00;;;24.30;82.20;;;;;;5011883;28;20037;-62
2022/09/08 01:38:51;;;;;;;18.07;15.87;;;24.30;82.40;;;;;;5012092;28;20021;-62
2022/09/08 01:41:17;;;;;;;18.87;16.30;;;24.20;83.60;;;;;;5011956;28;20022;-65
2022/09/08 01:43:43;;;;;;;22.00;16.30;;;24.30;82.90;;;;;;5011547;28;20054;-62
2022/09/08 01:46:09;;;;;;;17.80;15.70;;;24.20;83.40;;;;;;5010589;28;20029;-63
2022/09/08 01:48:35;;;;;;;17.80;16.13;;;24.20;83.50;;;;;;5012128;28;20026;-61
2022/09/08 01:51:02;;;;;;;19.00;16.43;;;24.10;83.50;;;;;;5011918;28;20041;-62
2022/09/08 01:53:29;;;;;;;22.42;16.40;;;24.10;83.60;;;;;;5011725;28;20029;-62
2022/09/08 01:55:54;;;;;;;17.43;15.63;;;24.10;84.00;;;;;;5011916;28;20083;-62
2022/09/08 01:58:20;;;;;;;21.23;16.03;;;24.10;84.00;;;;;;5011574;28;20288;-62
2022/09/08 02:00:46;;;;;;;19.70;16.83;;;24.20;83.70;;;;;;5011646;28;20037;-63
2022/09/08 02:03:12;;;;;;;36.47;18.27;;;24.20;83.70;;;;;;5011415;28;20364;-66
2022/09/08 02:05:39;;;;;;;20.20;16.73;;;24.20;83.90;;;;;;5011485;28;20619;-66
2022/09/08 02:08:06;;;;;;;19.63;17.80;;;24.30;83.70;;;;;;5011363;28;20033;-60
2022/09/08 02:10:32;;;;;;;23.17;17.75;;;;;;;;;;5011445;28;20042;-61
2022/09/08 02:12:58;;;;;;;21.87;18.47;;;24.30;83.90;;;;;;5011631;28;20383;-62
2022/09/08 02:15:24;;;;;;;20.75;17.10;;;24.30;83.90;;;;;;5010762;28;20331;-65
2022/09/08 02:17:50;;;;;;;19.75;17.65;;;24.30;83.90;;;;;;5011535;28;20460;-62
2022/09/08 02:20:16;;;;;;;22.63;17.43;;;24.30;83.70;;;;;;5011401;28;20100;-62
2022/09/08 02:22:42;;;;;;;18.48;16.48;;;24.30;83.90;;;;;;5011034;28;20029;-66
2022/09/08 02:25:08;;;;;;;22.90;17.15;;;24.30;83.90;;;;;;5011461;28;20033;-64
2022/09/08 02:27:34;;;;;;;21.30;16.80;;;24.30;83.80;;;;;;5011596;28;20397;-59
2022/09/08 02:30:00;;;;;;;21.13;18.03;;;24.30;83.90;;;;;;5011650;28;20108;-62
2022/09/08 02:32:25;;;;;;;22.00;18.37;;;24.20;84.00;;;;;;5010025;28;20137;-61
2022/09/08 02:34:52;;;;;;;21.33;17.90;;;24.20;84.30;;;;;;5011634;28;20025;-63
2022/09/08 02:37:18;;;;;;;22.67;17.50;;;24.20;84.50;;;;;;5013677;28;20062;-62
2022/09/08 02:39:44;;;;;;;21.65;19.40;;;24.20;84.40;;;;;;5014949;28;20018;-61
2022/09/08 02:42:11;;;;;;;23.00;19.50;;;24.20;84.60;;;;;;5015242;28;20426;-64
2022/09/08 02:44:38;;;;;;;20.58;18.05;;;24.20;84.60;;;;;;5015058;28;20076;-62
2022/09/08 02:47:04;;;;;;;20.25;17.67;;;24.20;84.60;;;;;;5015048;28;20076;-62
2022/09/08 02:49:31;;;;;;;22.73;18.38;;;24.10;84.70;;;;;;5014578;28;20041;-62
2022/09/08 02:51:58;;;;;;;19.77;17.67;;;24.10;84.80;;;;;;5014060;28;20030;-62
2022/09/08 02:54:24;;;;;;;20.60;18.50;;;24.10;85.40;;;;;;5013563;28;20041;-62
2022/09/08 02:56:50;;;;;;;23.23;19.80;;;24.10;85.40;;;;;;5014887;28;20041;-63
2022/09/08 02:59:15;;;;;;;24.83;20.00;;;24.10;85.60;;;;;;5015169;28;20277;-59
2022/09/08 03:01:43;;;;;;;23.83;21.37;;;24.10;85.60;;;;;;5014101;28;20486;-61
2022/09/08 03:04:12;;;;;;;27.52;21.23;;;24.10;85.70;;;;;;5014940;28;20033;-65
2022/09/08 03:06:39;;;;;;;25.38;22.20;;;24.10;86.00;;;;;;5015051;28;20486;-61
2022/09/08 03:09:06;;;;;;;26.00;23.27;;;;;;;;;;5014670;28;20561;-62
2022/09/08 03:11:32;;;;;;;24.98;22.52;;;;;;;;;;5013256;28;20043;-64
2022/09/08 03:14:01;;;;;;;27.83;24.80;;;24.00;87.30;;;;;;5008187;28;20479;-63
2022/09/08 03:16:27;;;;;;;31.50;23.48;;;23.90;88.60;;;;;;5010778;28;20044;-62
2022/09/08 03:18:53;;;;;;;30.33;23.23;;;23.90;88.60;;;;;;5015051;28;20024;-61
2022/09/08 03:21:20;;;;;;;26.92;24.23;;;23.80;89.50;;;;;;5026081;28;20060;-62
2022/09/08 03:23:46;;;;;;;29.65;24.98;;;23.80;89.30;;;;;;5014995;28;20026;-62
2022/09/08 03:26:15;;;;;;;37.17;25.05;;;23.80;89.00;;;;;;5014335;28;20105;-61
2022/09/08 03:28:42;;;;;;;30.10;25.92;;;23.80;88.60;;;;;;5014196;28;20030;-61
2022/09/08 03:31:09;;;;;;;32.08;26.83;;;23.80;88.70;;;;;;5013116;28;20457;-63
2022/09/08 03:33:36;;;;;;;28.77;24.75;;;23.80;89.20;;;;;;5014626;28;20110;-64
2022/09/08 03:36:04;;;;;;;28.25;23.30;;;23.80;89.20;;;;;;5014347;28;20113;-64
2022/09/08 03:38:31;;;;;;;28.20;25.25;;;23.80;89.10;;;;;;5012405;28;20018;-63
2022/09/08 03:40:57;;;;;;;27.70;24.75;;;23.80;89.60;;;;;;5013663;28;20039;-61
2022/09/08 03:43:22;;;;;;;28.97;25.17;;;23.80;89.50;;;;;;5013900;28;20029;-61
2022/09/08 03:45:48;;;;;;;28.87;25.17;;;23.80;89.90;;;;;;5014427;28;20014;-60
2022/09/08 03:48:14;;;;;;;32.80;25.13;;;23.80;90.00;;;;;;5013078;28;20041;-58
2022/09/08 03:50:40;;;;;;;26.30;23.48;;;23.80;89.70;;;;;;5013898;28;20049;-61
2022/09/08 03:53:06;;;;;;;28.73;23.47;;;23.90;89.50;;;;;;5011727;28;20030;-61
2022/09/08 03:55:32;;;;;;;29.13;23.43;;;23.90;89.20;;;;;;5013660;28;20088;-63
2022/09/08 03:57:59;;;;;;;30.77;27.03;;;24.00;89.10;;;;;;5013677;28;20124;-63
2022/09/08 04:00:25;;;;;;;28.02;24.98;;;24.10;88.70;;;;;;5013152;28;20119;-62
2022/09/08 04:02:51;;;;;;;30.70;27.50;;;24.20;88.40;;;;;;4997964;28;20077;-62
2022/09/08 04:05:17;;;;;;;30.13;26.43;;;24.20;88.30;;;;;;4994520;28;20480;-60
2022/09/08 04:07:43;;;;;;;34.30;27.70;;;24.30;88.10;;;;;;4994259;28;20494;-62
2022/09/08 04:10:11;;;;;;;30.30;26.55;;;24.30;88.10;;;;;;4994291;28;20053;-63
2022/09/08 04:12:37;;;;;;;35.47;28.45;;;24.30;88.10;;;;;;4994075;28;20487;-62
2022/09/08 04:15:04;;;;;;;28.93;25.87;;;24.30;88.30;;;;;;4994599;28;20088;-62
2022/09/08 04:17:30;;;;;;;31.90;25.88;;;24.30;88.10;;;;;;4994047;28;20527;-61
2022/09/08 04:19:55;;;;;;;29.43;26.27;;;24.30;88.40;;;;;;4994247;28;20097;-62
2022/09/08 04:22:22;;;;;;;32.40;26.77;;;24.30;88.20;;;;;;4992710;28;20058;-61
2022/09/08 04:24:48;;;;;;;29.77;24.42;;;24.40;88.40;;;;;;4994064;28;20033;-62
2022/09/08 04:27:14;;;;;;;29.73;26.27;;;24.40;88.00;;;;;;4994039;28;20267;-62
2022/09/08 04:29:40;;;;;;;28.83;25.70;;;24.40;88.00;;;;;;4993996;28;20027;-61
2022/09/08 04:32:09;;;;;;;28.77;24.87;;;24.40;88.00;;;;;;4993884;28;20034;-62
2022/09/08 04:34:36;;;;;;;33.72;26.10;;;24.40;88.50;;;;;;4994008;28;20019;-62
2022/09/08 04:37:03;;;;;;;28.27;25.27;;;24.40;88.60;;;;;;4993735;28;20105;-60
2022/09/08 04:39:29;;;;;;;26.30;23.55;;;24.40;88.50;;;;;;4992431;28;20388;-63
2022/09/08 04:41:55;;;;;;;30.58;25.50;;;24.40;88.90;;;;;;4993568;28;20468;-60
2022/09/08 04:44:21;;;;;;;35.40;28.57;;;24.40;88.70;;;;;;4993715;28;20026;-62
2022/09/08 04:46:47;;;;;;;31.00;27.47;;;24.40;88.70;;;;;;4993672;28;20069;-62
2022/09/08 04:49:13;;;;;;;28.93;25.53;;;24.50;88.70;;;;;;4993708;28;20026;-62
2022/09/08 04:51:39;;;;;;;30.07;26.67;;;24.40;88.70;;;;;;4993379;28;20076;-62
2022/09/08 04:54:05;;;;;;;31.40;27.65;;;24.50;88.50;;;;;;4993509;28;20453;-63
2022/09/08 04:56:32;;;;;;;30.65;27.42;;;24.50;89.10;;;;;;4993263;28;20030;-63
2022/09/08 04:59:00;;;;;;;30.70;27.50;;;24.50;88.30;;;;;;4993335;28;20070;-62
2022/09/08 05:01:37;;;;;;;31.88;28.45;;;24.50;88.50;;;;;;4993199;28;20557;-63
2022/09/08 05:04:03;;;;;;;31.50;28.02;;;24.50;88.90;;;;;;4993761;28;20026;-64
2022/09/08 05:06:31;;;;;;;38.43;31.97;;;24.50;88.80;;;;;;4991762;28;20124;-63
2022/09/08 05:09:00;;;;;;;37.78;30.95;;;24.50;88.80;;;;;;4993166;28;20034;-63
2022/09/08 05:11:27;;;;;;;36.88;29.85;;;24.50;89.00;;;;;;4992983;28;20030;-63
2022/09/08 05:13:53;;;;;;;32.88;29.23;;;24.50;89.00;;;;;;4991863;28;20026;-63
2022/09/08 05:16:21;;;;;;;30.58;27.27;;;24.50;89.00;;;;;;4993077;28;20394;-64
2022/09/08 05:18:56;;;;;;;32.15;28.92;;;24.50;88.90;;;;;;4992914;28;20026;-62
2022/09/08 05:21:22;;;;;;;33.42;29.23;;;24.60;88.90;;;;;;4992789;28;20049;-62
2022/09/08 05:23:50;;;;;;;37.88;31.33;;;24.50;88.60;;;;;;4993051;28;20029;-62
2022/09/08 05:26:17;;;;;;;32.88;29.38;;;24.50;88.80;;;;;;4993160;28;20057;-62
2022/09/08 05:28:44;;;;;;;35.75;29.65;;;24.50;89.10;;;;;;4992895;28;20038;-61
2022/09/08 05:31:13;;;;;;;36.45;28.50;;;24.50;89.10;;;;;;4991388;28;20065;-62
2022/09/08 05:33:39;;;;;;;34.30;29.55;;;24.50;89.50;;;;;;4992819;28;20026;-62
2022/09/08 05:36:17;;;;;;;33.72;30.13;;;24.50;89.40;;;;;;4991419;28;20033;-62
2022/09/08 05:38:44;;;;;;;32.58;28.88;;;24.50;89.50;;;;;;4992639;28;20030;-62
2022/09/08 05:41:10;;;;;;;;;;;24.50;89.30;;;;;;4992999;28;20105;-62
2022/09/08 05:43:37;;;;;;;33.30;29.55;;;24.50;89.60;;;;;;5007699;28;19913;-65
2022/09/08 05:46:04;;;;;;;32.05;28.00;;;24.50;89.70;;;;;;4992662;28;20030;-60
2022/09/08 05:48:30;;;;;;;32.30;28.92;;;24.50;89.50;;;;;;4992567;28;20035;-64
2022/09/08 05:50:57;;;;;;;35.92;27.80;;;24.60;89.30;;;;;;4992484;28;20094;-64
2022/09/08 05:53:23;;;;;;;31.73;28.33;;;24.60;89.20;;;;;;4992468;28;20499;-62
2022/09/08 05:56:00;;;;;;;36.13;28.03;;;24.70;89.00;;;;;;4992537;28;20037;-62
2022/09/08 05:58:26;;;;;;;;;;;24.70;89.00;;;;;;4993290;28;20530;-62
2022/09/08 06:01:00;;;;;;;32.55;28.05;;;24.70;89.00;;;;;;4992287;28;19921;-63
2022/09/08 06:03:26;;;;;;;35.42;29.15;;;24.70;89.20;;;;;;4992293;28;20022;-62
2022/09/08 06:05:53;;;;;;;37.97;27.58;;;24.70;88.80;;;;;;4992450;28;20030;-62
2022/09/08 06:08:21;;;;;;;35.05;29.33;;;24.70;88.80;;;;;;4992280;28;20391;-61
2022/09/08 06:10:51;;;;;;;30.40;26.50;;;24.70;88.80;;;;;;4991622;28;20482;-63
2022/09/08 06:13:17;;;;;;;39.03;28.15;;;24.70;88.50;;;;;;4992589;28;20030;-62
2022/09/08 06:15:43;;;;;;;32.88;27.30;;;24.80;88.50;;;;;;4992211;28;20372;-62
2022/09/08 06:18:09;;;;;;;35.97;27.17;;;24.70;88.50;;;;;;4990829;28;20030;-62
2022/09/08 06:20:36;;;;;;;31.97;26.80;;;24.70;88.70;;;;;;4992243;28;20312;-62
2022/09/08 06:23:02;;;;;;;28.88;25.80;;;24.70;88.90;;;;;;4992251;28;20053;-62
2022/09/08 06:25:27;;;;;;;35.90;27.60;;;24.80;89.00;;;;;;4992167;28;20030;-62
2022/09/08 06:27:59;;;;;;;30.37;27.07;;;24.80;88.70;;;;;;4992128;28;20030;-63
2022/09/08 06:30:24;;;;;;;33.45;26.17;;;24.80;88.60;;;;;;4992144;28;20037;-63
2022/09/08 06:33:03;;;;;;;31.00;26.97;;;24.90;88.40;;;;;;4992083;28;20109;-62
2022/09/08 06:35:57;;;;;;;30.85;27.55;;;24.90;88.00;;;;;;4992166;28;20122;-62
2022/09/08 06:38:41;;;;;;;29.95;25.75;;;25.00;87.60;;;;;;4992006;28;20030;-64
2022/09/08 06:41:15;;;;;;;33.00;27.52;;;25.20;87.30;;;;;;4991921;28;20029;-63
2022/09/08 06:43:46;;;;;;;30.10;26.92;;;25.30;87.00;;;;;;4992112;28;20038;-63
2022/09/08 06:46:28;;;;;;;29.38;26.00;;;25.40;86.80;;;;;;4992092;28;20506;-63
2022/09/08 06:48:54;;;;;;;28.33;25.35;;;25.30;86.70;;;;;;4992068;28;20101;-62
2022/09/08 06:51:23;;;;;;;33.53;26.77;;;25.30;86.90;;;;;;4991914;28;20562;-62
2022/09/08 06:53:54;;;;;;;35.85;27.25;;;25.20;86.90;;;;;;4991973;28;20034;-62
2022/09/08 06:56:28;;;;;;;33.33;25.30;;;25.10;87.00;;;;;;4991946;28;20031;-63
2022/09/08 06:59:01;;;;;;;29.27;25.98;;;25.10;87.60;;;;;;4991840;28;20549;-62
2022/09/08 07:01:33;;;;;;;27.10;24.27;;;25.20;87.30;;;;;;4991735;28;20465;-63
2022/09/08 07:04:35;;;;;;;26.75;23.92;;;25.20;87.30;;;;;;4991754;28;20085;-62
2022/09/08 07:07:18;;;;;;;36.25;27.63;;;25.50;87.80;;;;;;4991746;28;20038;-65
2022/09/08 07:09:58;;;;;;;26.95;24.05;;;25.20;87.10;;;;;;4990578;28;20018;-65
2022/09/08 07:12:48;;;;;;;29.13;23.83;;;25.50;86.50;;;;;;4991709;28;20038;-66
2022/09/08 07:15:52;;;;;;;28.38;25.27;;;25.70;85.90;;;;;;4991902;28;20022;-66
2022/09/08 07:18:47;;;;;;;26.00;22.20;;;25.80;84.90;;;;;;4987481;28;20034;-66
2022/09/08 07:21:28;;;;;;;26.38;23.17;;;25.80;83.90;;;;;;4989642;28;20038;-66
2022/09/08 07:23:57;;;;;;;26.98;22.05;;;26.00;84.10;;;;;;4993464;28;20030;-62
2022/09/08 07:26:51;;;;;;;24.48;20.95;;;26.00;83.90;;;;;;4995169;28;20093;-62
2022/09/08 07:29:29;;;;;;;24.30;21.48;;;26.20;83.20;;;;;;4995172;28;20026;-62
2022/09/08 07:31:55;;;;;;;;;;;26.30;82.30;;;;;;4995359;28;20030;-61
2022/09/08 07:34:35;;;;;;;22.80;20.35;;;26.40;82.10;;;;;;4993707;28;19913;-61
2022/09/08 07:37:11;;;;;;;25.15;21.05;;;26.50;80.50;;;;;;4994962;28;20557;-62
2022/09/08 07:40:00;;;;;;;23.35;19.20;;;26.50;80.40;;;;;;4993623;28;20169;-62
2022/09/08 07:42:27;;;;;;;20.98;18.88;;;26.60;79.60;;;;;;4994695;28;20038;-62
2022/09/08 07:44:59;;;;;;;20.23;17.10;;;26.60;79.70;;;;;;4994899;28;20033;-62
2022/09/08 07:47:59;;;;;;;23.73;19.27;;;26.60;78.90;;;;;;4994686;28;20026;-61
2022/09/08 07:50:54;;;;;;;21.63;18.65;;;26.60;79.00;;;;;;4991727;28;20543;-64
2022/09/08 07:53:41;;;;;;;26.17;19.95;;;26.50;79.40;;;;;;4994712;28;20097;-61
2022/09/08 07:56:25;;;;;;;26.83;20.17;;;26.50;79.80;;;;;;4994648;28;20502;-61
2022/09/08 07:58:54;;;;;;;22.25;19.27;;;26.50;80.00;;;;;;4994524;28;20037;-62
2022/09/08 08:01:30;;;;;;;28.13;19.02;;;26.50;80.00;;;;;;4994366;28;20101;-61
2022/09/08 08:04:36;;;;;;;22.42;17.88;;;26.50;79.50;;;;;;4994442;28;20030;-62
2022/09/08 08:07:08;;;;;;;22.25;17.95;;;26.60;79.30;;;;;;4994542;28;20106;-62
2022/09/08 08:10:09;;;;;;;23.55;17.38;;;26.60;79.10;;;;;;4993098;28;20035;-62
2022/09/08 08:12:41;;;;;;;20.08;17.40;;;26.70;78.50;;;;;;4994302;28;20113;-61
2022/09/08 08:15:30;;;;;;;21.48;18.08;;;26.80;78.30;;;;;;4994343;28;20054;-61
2022/09/08 08:18:30;;;;;;;21.08;16.33;;;26.80;77.70;;;;;;4991012;28;20115;-61
2022/09/08 08:21:00;;;;;;;20.27;15.55;;;26.90;77.80;;;;;;4994089;28;20037;-62
2022/09/08 08:23:51;;;;;;;21.55;15.68;;;26.90;77.60;;;;;;4992936;28;20065;-62
2022/09/08 08:26:34;;;;;;;21.85;16.58;;;27.00;76.80;;;;;;4994070;28;20065;-62
2022/09/08 08:29:19;;;;;;;26.27;17.20;;;27.10;77.20;;;;;;4994023;28;20026;-62
2022/09/08 08:31:47;;;;;;;16.95;15.18;;;27.20;76.20;;;;;;4993762;28;20395;-61
2022/09/08 08:34:32;;;;;;;17.10;15.30;;;27.20;75.70;;;;;;4993541;28;20434;-61
2022/09/08 08:37:03;;;;;;;19.48;15.98;;;27.30;75.10;;;;;;4993799;28;20595;-61
2022/09/08 08:39:32;;;;;;;16.38;14.68;;;27.30;76.20;;;;;;4993897;28;20073;-61
2022/09/08 08:42:29;;;;;;;19.50;16.10;;;27.30;76.20;;;;;;4992381;28;20368;-62
2022/09/08 08:45:03;;;;;;;21.67;13.98;;;27.30;75.90;;;;;;5003179;28;20041;-62
2022/09/08 08:47:32;;;;;;;20.05;13.85;;;27.40;74.90;;;;;;4993652;28;20026;-61
2022/09/08 08:50:16;;;;;;;18.13;12.95;;;27.40;74.80;;;;;;4993589;28;20018;-62
2022/09/08 08:53:13;;;;;;;17.77;12.93;;;27.40;74.40;;;;;;4993525;28;20038;-61
2022/09/08 08:56:08;;;;;;;19.45;13.45;;;27.50;73.80;;;;;;4993526;28;20026;-62
2022/09/08 08:58:45;;;;;;;15.05;13.43;;;27.60;73.70;;;;;;4993227;28;20038;-61
2022/09/08 09:01:35;;;;;;;18.00;12.98;;;27.70;73.70;;;;;;4993337;28;20049;-62
2022/09/08 09:04:01;;;;;;;15.27;11.77;;;27.80;73.00;;;;;;4993667;28;20030;-61
2022/09/08 09:06:53;;;;;;;18.90;12.53;;;27.80;72.60;;;;;;4993350;28;20037;-61
2022/09/08 09:09:37;;;;;;;16.98;12.10;;;27.90;72.40;;;;;;5008569;28;20313;-61
2022/09/08 09:12:36;;;;;;;15.23;11.38;;;28.00;72.40;;;;;;4993036;28;20042;-61
2022/09/08 09:15:33;;;;;;;18.92;11.32;;;28.10;71.80;;;;;;4993272;28;20080;-61
2022/09/08 09:18:14;;;;;;;13.98;10.65;;;28.10;68.90;;;;;;4993056;28;20072;-61
2022/09/08 09:20:57;;;;;;;14.15;11.00;;;28.10;69.60;;;;;;4993023;28;20446;-62
2022/09/08 09:23:44;;;;;;;17.80;10.20;;;28.20;69.00;;;;;;4992837;28;20503;-62
2022/09/08 09:26:19;;;;;;;16.20;11.32;;;28.30;69.80;;;;;;4993068;28;20022;-61
2022/09/08 09:29:19;;;;;;;19.17;11.70;;;28.40;69.40;;;;;;4992827;28;20026;-61
2022/09/08 09:32:04;;;;;;;17.23;9.13;;;28.50;69.30;;;;;;4991594;28;20512;-62
2022/09/08 09:34:39;;;;;;;16.17;8.73;;;28.70;67.30;;;;;;4992855;28;20097;-60
2022/09/08 09:37:26;;;;;;;16.73;9.60;;;28.90;67.70;;;;;;4992690;28;20506;-61
2022/09/08 09:39:56;;;;;;;13.63;8.97;;;29.10;67.40;;;;;;4992853;28;20101;-61
2022/09/08 09:42:51;;;;;;;14.98;8.32;;;29.30;66.10;;;;;;4992525;28;20113;-62
2022/09/08 09:45:46;;;;;;;13.48;8.63;;;29.40;65.40;;;;;;4990976;28;20034;-62
2022/09/08 09:48:17;;;;;;;17.88;8.55;;;29.40;66.30;;;;;;4992535;28;20027;-62
2022/09/08 09:51:04;;;;;;;16.05;8.73;;;29.40;65.10;;;;;;4992395;28;20400;-62
2022/09/08 09:53:58;;;;;;;10.45;8.05;;;29.30;65.40;;;;;;4992502;28;20022;-61
2022/09/08 09:56:58;;;;;;;15.52;7.88;;;29.20;65.70;;;;;;4992311;28;20039;-61
2022/09/08 10:00:17;;;;;;;14.50;8.73;;;29.30;65.90;;;;;;4992352;28;20032;-62
2022/09/08 10:03:21;;;;;;;11.35;6.95;;;29.40;64.70;;;;;;4989946;28;20030;-61
2022/09/08 10:06:19;;;;;;;18.42;7.35;;;29.50;64.10;;;;;;4959577;28;20035;-61
2022/09/08 10:08:48;;;;;;;15.98;8.60;;;29.60;62.10;;;;;;4992489;28;20113;-61
2022/09/08 10:11:48;;;;;;;10.93;7.82;;;29.60;63.10;;;;;;4992159;28;20502;-61
2022/09/08 10:14:32;;;;;;;11.75;6.75;;;29.70;63.30;;;;;;4992443;28;20041;-62
2022/09/08 10:17:18;;;;;;;10.15;6.65;;;29.80;62.20;;;;;;4992305;28;20141;-62
2022/09/08 10:20:04;;;;;;;14.85;6.85;;;29.80;62.50;;;;;;4992251;28;20030;-62
2022/09/08 10:22:49;;;;;;;14.38;7.07;;;30.00;61.30;;;;;;4992127;28;20027;-61
2022/09/08 10:26:01;;;;;;;11.32;6.32;;;30.20;62.40;;;;;;4992278;28;20476;-61
2022/09/08 10:28:45;;;;;;;11.38;6.65;;;30.60;61.20;;;;;;4992090;28;20026;-62
2022/09/08 10:31:38;;;;;;;14.48;6.55;;;30.90;59.90;;;;;;4992059;28;20441;-62
2022/09/08 10:34:38;;;;;;;9.73;4.43;;;31.30;58.80;;;;;;4992153;28;20499;-62
2022/09/08 10:37:40;;;;;;;9.80;5.18;;;31.40;57.10;;;;;;4990858;28;20117;-61
2022/09/08 10:40:27;;;;;;;10.05;5.05;;;31.70;56.90;;;;;;4992167;28;20542;-62
2022/09/08 10:43:04;;;;;;;11.70;5.00;;;31.90;56.10;;;;;;4992063;28;20409;-62
2022/09/08 10:45:45;;;;;;;8.77;4.32;;;32.00;55.50;;;;;;5007549;28;20483;-61
2022/09/08 10:48:32;;;;;;;10.73;5.35;;;32.00;54.80;;;;;;5009776;28;20022;-62
2022/09/08 10:51:14;;;;;;;10.15;5.20;;;32.00;54.90;;;;;;5008513;28;20022;-61
2022/09/08 10:54:14;;;;;;;11.15;5.68;;;31.90;55.30;;;;;;5007622;28;20022;-62
2022/09/08 10:56:42;;;;;;;10.60;5.57;;;31.70;53.40;;;;;;5004218;28;20117;-61
2022/09/08 10:59:30;;;;;;;7.95;6.10;;;31.30;54.50;;;;;;5014645;28;20022;-62
2022/09/08 11:02:01;;;;;;;11.73;4.85;;;31.20;54.30;;;;;;5014905;28;20022;-62
2022/09/08 11:04:51;;;;;;;12.80;5.50;;;31.10;55.90;;;;;;5014510;28;20156;-61
2022/09/08 11:07:43;;;;;;;6.95;4.43;;;31.10;56.50;;;;;;5015108;28;20475;-62
2022/09/08 12:14:38;;;;;;;6.57;2.28;;;29.60;56.40;;;;;;3295739;26;20069;-55
2022/09/08 12:17:27;;;;;;;7.22;1.90;;;29.70;56.40;;;;;;4968843;28;20035;-52
2022/09/08 12:20:04;;;;;;;7.38;2.10;;;30.00;54.80;;;;;;4987681;28;20511;-53
2022/09/08 12:22:36;;;;;;;5.00;2.30;;;30.20;55.10;;;;;;4993564;28;20023;-53
2022/09/08 12:25:21;;;;;;;7.40;2.83;;;30.30;54.40;;;;;;4981716;28;20214;-56
2022/09/08 12:27:56;;;;;;;4.93;2.25;;;30.50;53.60;;;;;;5012899;23;20434;-49
2022/09/08 12:30:41;;;;;;;6.72;2.05;;;30.50;53.80;;;;;;4992561;28;20018;-49
2022/09/08 12:33:32;;;;;;;7.90;2.70;;;30.70;53.60;;;;;;4993603;28;20081;-49
2022/09/08 12:36:32;;;;;;;8.88;2.95;;;30.70;53.40;;;;;;4992648;28;20427;-50
2022/09/08 12:39:16;;;;;;;5.53;2.60;;;30.80;52.80;;;;;;4993327;28;20042;-50
2022/09/08 12:41:55;;;;;;;9.27;3.60;;;31.00;53.70;;;;;;4993845;28;20533;-48
2022/09/08 12:44:33;;;;;;;8.25;2.70;;;31.20;52.90;;;;;;4993403;28;20129;-50
2022/09/08 12:47:34;;;;;;;5.50;2.45;;;31.30;52.90;;;;;;4993727;28;20022;-49
2022/09/08 12:50:13;;;;;;;5.45;2.38;;;31.50;51.50;;;;;;4993333;28;20027;-49
2022/09/08 12:52:41;;;;;;;6.80;2.55;;;31.70;51.60;;;;;;4993259;28;20027;-49
2022/09/08 12:55:58;;;;;;;9.75;2.70;;;32.20;51.00;;;;;;4993477;28;20041;-49
2022/09/08 12:58:29;;;;;;;7.13;3.22;;;32.90;49.30;;;;;;4952243;29;20504;-50
2022/09/08 13:01:06;;;;;;;10.80;3.63;;;33.40;48.70;;;;;;4986141;28;20046;-50
2022/09/08 13:03:33;;;;;;;6.90;3.05;;;33.60;49.30;;;;;;4993025;28;20018;-50
2022/09/08 13:06:32;;;;;;;6.78;3.08;;;33.70;48.30;;;;;;4993273;28;20022;-50
2022/09/08 13:09:07;;;;;;;15.73;3.78;;;33.80;48.50;;;;;;4992793;28;20077;-50
2022/09/08 13:11:41;;;;;;;6.65;2.67;;;33.80;49.00;;;;;;4993370;28;20061;-49
2022/09/08 13:14:09;;;;;;;16.25;3.08;;;33.90;48.10;;;;;;4991579;28;20038;-50
2022/09/08 13:17:05;;;;;;;9.20;3.90;;;34.00;48.30;;;;;;4993073;28;20026;-49
2022/09/08 13:19:38;;;;;;;6.63;2.72;;;34.60;46.70;;;;;;4992857;28;20113;-50
2022/09/08 13:22:30;;;;;;;8.88;3.75;;;35.60;45.40;;;;;;4991470;28;20168;-49
2022/09/08 13:25:19;;;;;;;11.10;3.72;;;36.50;43.30;;;;;;4991183;28;20054;-50
2022/09/08 13:28:03;;;;;;;6.75;3.22;;;37.00;40.60;;;;;;4992666;28;20487;-50
2022/09/08 13:31:06;;;;;;;6.47;2.72;;;37.50;41.60;;;;;;4992710;28;20069;-50
2022/09/08 13:33:56;;;;;;;8.38;2.35;;;38.60;40.60;;;;;;4952016;28;20042;-51
2022/09/08 13:36:41;;;;;;;7.00;2.58;;;39.60;39.40;;;;;;4989545;28;20395;-50
2022/09/08 13:39:36;;;;;;;7.00;2.55;;;41.30;36.90;;;;;;4995826;28;20041;-50
2022/09/08 13:42:23;;;;;;;7.32;2.20;;;42.10;35.00;;;;;;4975234;28;20026;-51
2022/09/08 13:45:05;;;;;;;9.05;2.45;;;43.10;34.30;;;;;;4995703;28;20029;-50
2022/09/08 13:47:58;;;;;;;8.13;2.40;;;43.80;33.00;;;;;;5012309;28;20022;-50
2022/09/08 13:51:11;;;;;;;6.47;3.50;;;42.70;32.80;;;;;;5012239;28;20053;-54
2022/09/08 13:54:04;;;;;;;8.25;3.08;;;42.50;33.60;;;;;;5012761;28;20049;-61
2022/09/08 13:56:39;;;;;;;6.95;2.55;;;40.50;35.90;;;;;;4963730;28;20586;-60
2022/09/08 13:59:31;;;;;;;7.95;2.90;;;38.60;38.10;;;;;;4994175;28;20034;-60
2022/09/08 14:01:57;;;;;;;4.72;2.85;;;37.20;41.10;;;;;;4993701;28;20030;-60
2022/09/08 14:04:38;;;;;;;8.25;2.90;;;36.10;41.50;;;;;;4991787;28;20022;-61
2022/09/08 14:07:21;;;;;;;6.95;2.65;;;35.30;42.50;;;;;;4993241;28;20109;-61
2022/09/08 14:10:42;;;;;;;14.43;3.53;;;34.60;44.40;;;;;;4993899;28;20061;-61
2022/09/08 14:13:10;;;;;;;7.88;2.22;;;34.00;45.50;;;;;;4952025;29;20031;-61
2022/09/08 14:15:47;;;;;;;10.65;2.67;;;33.50;46.90;;;;;;4949202;29;20087;-61
2022/09/08 14:18:22;;;;;;;6.18;2.63;;;;;;;;;;4977782;28;20035;-52
2022/09/08 14:20:54;;;;;;;11.15;3.50;;;;;;;;;;4991070;28;20034;-51
2022/09/08 14:23:23;;;;;;;4.82;3.28;;;;;;;;;;4986764;28;20030;-51
2022/09/08 14:25:50;;;;;;;7.35;2.92;;;;;;;;;;4991117;28;20027;-51
2022/09/08 14:28:21;;;;;;;8.40;3.08;;;;;;;;;;4989879;28;20038;-51